createdAt,value
2019-04-05T00:01:53.534Z,95887.00
2019-04-05T00:04:24.821Z,95884.00
2019-04-05T00:06:56.421Z,95887.00
2019-04-05T00:09:27.834Z,95889.00
2019-04-05T00:11:59.447Z,95885.00
2019-04-05T00:14:30.805Z,95885.00
2019-04-05T00:17:01.994Z,95879.00
2019-04-05T00:19:33.655Z,95881.00
2019-04-05T00:22:05.058Z,95883.00
2019-04-05T00:24:36.340Z,95886.00
2019-04-05T00:27:07.890Z,95895.00
2019-04-05T00:29:39.463Z,95890.00
2019-04-05T00:32:11.341Z,95897.00
2019-04-05T00:34:42.726Z,95891.00
2019-04-05T00:37:14.018Z,95877.00
2019-04-05T00:39:45.691Z,95896.00
2019-04-05T00:42:18.030Z,95887.00
2019-04-05T00:44:49.688Z,95895.00
2019-04-05T00:47:20.952Z,95906.00
2019-04-05T00:49:52.547Z,95909.00
2019-04-05T00:52:24.189Z,95908.00
2019-04-05T00:54:55.843Z,95910.00
2019-04-05T00:57:27.486Z,95911.00
2019-04-05T00:59:58.791Z,95909.00
2019-04-05T01:02:31.807Z,95913.00
2019-04-05T01:05:03.680Z,95908.00
2019-04-05T01:07:35.355Z,95904.00
2019-04-05T01:10:07.729Z,95899.00
2019-04-05T01:12:40.891Z,95911.00
2019-04-05T01:15:13.203Z,95907.00
2019-04-05T01:17:44.550Z,95908.00
2019-04-05T01:20:15.825Z,95904.00
2019-04-05T01:22:48.279Z,95896.00
2019-04-05T01:25:21.779Z,95903.00
2019-04-05T01:27:53.134Z,95907.00
2019-04-05T01:30:24.743Z,95903.00
2019-04-05T01:32:56.270Z,95906.00
2019-04-05T01:35:28.032Z,95916.00
2019-04-05T01:37:59.813Z,95901.00
2019-04-05T01:40:36.154Z,95897.00
2019-04-05T01:43:07.408Z,95898.00
2019-04-05T01:45:39.136Z,95904.00
2019-04-05T01:48:10.674Z,95894.00
2019-04-05T01:50:41.957Z,95900.00
2019-04-05T01:53:13.437Z,95908.00
2019-04-05T01:55:45.365Z,95907.00
2019-04-05T01:58:17.031Z,95904.00
2019-04-05T02:00:48.710Z,95914.00
2019-04-05T02:03:19.993Z,95913.00
2019-04-05T02:05:52.028Z,95909.00
2019-04-05T02:08:23.290Z,95917.00
2019-04-05T02:10:55.298Z,95905.00
2019-04-05T02:13:26.545Z,95911.00
2019-04-05T02:16:06.025Z,95918.00
2019-04-05T02:18:30.782Z,95924.00
2019-04-05T02:21:02.398Z,95922.00
2019-04-05T02:23:34.420Z,95919.00
2019-04-05T02:26:06.146Z,95918.00
2019-04-05T02:28:37.423Z,95921.00
2019-04-05T02:31:09.035Z,95926.00
2019-04-05T02:33:40.650Z,95935.00
2019-04-05T02:36:11.947Z,95934.00
2019-04-05T02:38:43.466Z,95942.00
2019-04-05T02:41:16.468Z,95940.00
2019-04-05T02:43:49.937Z,95948.00
2019-04-05T02:46:23.899Z,95957.00
2019-04-05T02:48:56.579Z,95949.00
2019-04-05T02:51:29.674Z,95950.00
2019-04-05T02:54:02.937Z,95953.00
2019-04-05T02:56:36.529Z,95960.00
2019-04-05T02:59:08.823Z,95986.00
2019-04-05T03:01:40.221Z,95984.00
2019-04-05T03:04:12.160Z,95982.00
2019-04-05T03:06:49.061Z,95986.00
2019-04-05T03:09:22.216Z,95988.00
2019-04-05T03:11:54.675Z,95990.00
2019-04-05T03:14:27.126Z,95987.00
2019-04-05T03:16:59.220Z,95989.00
2019-04-05T03:19:35.295Z,95982.00
2019-04-05T03:22:10.614Z,95998.00
2019-04-05T03:24:46.801Z,95996.00
2019-04-05T03:27:27.332Z,95999.00
2019-04-05T03:29:59.333Z,95998.00
2019-04-05T03:32:30.628Z,95993.00
2019-04-05T03:35:02.800Z,95990.00
2019-04-05T03:37:34.416Z,95993.00
2019-04-05T03:40:06.636Z,95994.00
2019-04-05T03:42:39.154Z,96001.00
2019-04-05T03:45:10.621Z,96004.00
2019-04-05T03:47:42.421Z,96008.00
2019-04-05T03:50:13.752Z,96016.00
2019-04-05T03:52:46.377Z,96015.00
2019-04-05T03:55:18.412Z,96006.00
2019-04-05T03:57:50.136Z,96017.00
2019-04-05T04:00:21.815Z,96020.00
2019-04-05T04:02:53.663Z,96015.00
2019-04-05T04:05:25.073Z,96016.00
2019-04-05T04:07:56.890Z,96013.00
2019-04-05T04:10:30.117Z,96024.00
2019-04-05T04:13:01.416Z,96030.00
2019-04-05T04:15:34.527Z,96027.00
2019-04-05T04:18:07.041Z,96023.00
2019-04-05T04:20:48.913Z,96025.00
2019-04-05T04:23:24.446Z,96026.00
2019-04-05T04:25:57.040Z,96020.00
2019-04-05T04:28:29.199Z,96009.00
2019-04-05T04:31:02.303Z,96022.00
2019-04-05T04:33:34.378Z,96026.00
2019-04-05T04:36:06.375Z,96021.00
2019-04-05T04:38:38.033Z,96031.00
2019-04-05T04:41:10.038Z,96026.00
2019-04-05T04:43:41.820Z,96026.00
2019-04-05T04:46:13.593Z,96035.00
2019-04-05T04:48:46.522Z,96034.00
2019-04-05T04:51:20.258Z,96025.00
2019-04-05T04:53:52.175Z,96032.00
2019-04-05T04:56:24.050Z,96032.00
2019-04-05T04:58:56.793Z,96034.00
2019-04-05T05:01:28.140Z,96035.00
2019-04-05T05:04:00.253Z,96037.00
2019-04-05T05:06:32.217Z,96020.00
2019-04-05T05:09:05.792Z,96025.00
2019-04-05T05:11:37.885Z,96032.00
2019-04-05T05:14:10.346Z,96034.00
2019-04-05T05:16:41.601Z,96039.00
2019-04-05T05:19:12.862Z,96041.00
2019-04-05T05:21:44.181Z,96037.00
2019-04-05T05:24:16.087Z,96027.00
2019-04-05T05:26:47.485Z,96029.00
2019-04-05T05:29:19.986Z,96045.00
2019-04-05T05:31:51.640Z,96043.00
2019-04-05T05:34:23.363Z,96046.00
2019-04-05T05:36:55.179Z,96047.00
2019-04-05T05:39:26.673Z,96051.00
2019-04-05T05:41:58.305Z,96046.00
2019-04-05T05:44:29.818Z,96045.00
2019-04-05T05:47:01.430Z,96050.00
2019-04-05T05:49:32.705Z,96056.00
2019-04-05T05:52:04.585Z,96062.00
2019-04-05T05:54:36.190Z,96065.00
2019-04-05T05:57:07.481Z,96066.00
2019-04-05T05:59:38.759Z,96060.00
2019-04-05T06:02:10.417Z,96071.00
2019-04-05T06:04:41.697Z,96067.00
2019-04-05T06:07:13.266Z,96066.00
2019-04-05T06:09:47.530Z,96067.00
2019-04-05T06:12:18.319Z,96068.00
2019-04-05T06:14:49.450Z,96068.00
2019-04-05T06:17:20.752Z,96066.00
2019-04-05T06:19:51.973Z,96072.00
2019-04-05T06:22:23.552Z,96070.00
2019-04-05T06:24:55.001Z,96071.00
2019-04-05T06:27:26.950Z,96069.00
2019-04-05T06:29:58.333Z,96078.00
2019-04-05T06:32:29.623Z,96083.00
2019-04-05T06:35:01.753Z,96077.00
2019-04-05T06:37:33.274Z,96080.00
2019-04-05T06:40:05.093Z,96093.00
2019-04-05T06:42:36.745Z,96083.00
2019-04-05T06:45:08.443Z,96089.00
2019-04-05T06:47:40.494Z,96097.00
2019-04-05T06:50:12.300Z,96088.00
2019-04-05T06:52:43.842Z,96085.00
2019-04-05T06:55:15.109Z,96081.00
2019-04-05T06:57:46.633Z,96094.00
2019-04-05T07:00:24.238Z,96087.00
2019-04-05T07:02:55.560Z,96085.00
2019-04-05T07:05:27.000Z,96090.00
2019-04-05T07:07:58.336Z,96084.00
2019-04-05T07:10:29.560Z,96095.00
2019-04-05T07:13:01.273Z,96089.00
2019-04-05T07:15:32.908Z,96095.00
2019-04-05T07:18:05.176Z,96087.00
2019-04-05T07:20:36.558Z,96091.00
2019-04-05T07:23:07.883Z,96086.00
2019-04-05T07:25:39.447Z,96091.00
2019-04-05T07:28:10.810Z,96094.00
2019-04-05T07:30:41.989Z,96114.00
2019-04-05T07:33:13.190Z,96105.00
2019-04-05T07:35:44.396Z,96106.00
2019-04-05T07:38:15.858Z,96108.00
2019-04-05T07:40:46.972Z,96111.00
2019-04-05T07:43:18.733Z,96105.00
2019-04-05T07:45:50.124Z,96107.00
2019-04-05T07:48:21.352Z,96105.00
2019-04-05T07:50:53.134Z,96104.00
2019-04-05T07:53:24.438Z,96110.00
2019-04-05T07:55:55.723Z,96113.00
2019-04-05T07:58:26.998Z,96121.00
2019-04-05T08:00:58.654Z,96112.00
2019-04-05T08:03:29.942Z,96118.00
2019-04-05T08:06:01.231Z,96109.00
2019-04-05T08:08:47.421Z,96108.00
2019-04-05T08:11:19.339Z,96118.00
2019-04-05T08:13:55.525Z,96115.00
2019-04-05T08:16:27.188Z,96119.00
2019-04-05T08:18:58.853Z,96113.00
2019-04-05T08:21:30.084Z,96115.00
2019-04-05T08:24:01.724Z,96116.00
2019-04-05T08:26:33.053Z,96124.00
2019-04-05T08:29:05.270Z,96111.00
2019-04-05T08:31:37.021Z,96117.00
2019-04-05T08:34:08.685Z,96124.00
2019-04-05T08:36:39.944Z,96123.00
2019-04-05T08:39:12.037Z,96126.00
2019-04-05T08:41:43.370Z,96128.00
2019-04-05T08:44:14.987Z,96115.00
2019-04-05T08:46:46.361Z,96130.00
2019-04-05T08:49:17.711Z,96124.00
2019-04-05T08:51:49.583Z,96130.00
2019-04-05T08:54:31.881Z,96128.00
2019-04-05T08:56:54.048Z,96135.00
2019-04-05T08:59:25.976Z,96131.00
2019-04-05T09:01:57.625Z,96138.00
2019-04-05T09:04:28.867Z,96130.00
2019-04-05T09:07:00.176Z,96134.00
2019-04-05T09:09:32.477Z,96136.00
2019-04-05T09:12:04.645Z,96130.00
2019-04-05T09:14:36.061Z,96142.00
2019-04-05T09:17:07.779Z,96149.00
2019-04-05T09:19:39.420Z,96151.00
2019-04-05T09:22:11.022Z,96147.00
2019-04-05T09:24:42.592Z,96141.00
2019-04-05T09:27:14.167Z,96153.00
2019-04-05T09:29:47.018Z,96153.00
2019-04-05T09:32:18.668Z,96154.00
2019-04-05T09:34:50.355Z,96147.00
2019-04-05T09:37:21.930Z,96153.00
2019-04-05T09:39:53.158Z,96156.00
2019-04-05T09:42:24.705Z,96153.00
2019-04-05T09:44:56.237Z,96146.00
2019-04-05T09:47:27.919Z,96149.00
2019-04-05T09:49:59.147Z,96148.00
2019-04-05T09:52:31.111Z,96146.00
2019-04-05T09:55:02.463Z,96151.00
2019-04-05T09:57:34.827Z,96155.00
2019-04-05T10:00:12.108Z,96142.00
2019-04-05T10:02:43.399Z,96150.00
2019-04-05T10:05:14.852Z,96146.00
2019-04-05T10:07:54.932Z,96158.00
2019-04-05T10:10:19.656Z,96146.00
2019-04-05T10:12:50.840Z,96160.00
2019-04-05T10:15:22.459Z,96150.00
2019-04-05T10:17:53.924Z,96158.00
2019-04-05T10:20:25.290Z,96163.00
2019-04-05T10:22:56.584Z,96160.00
2019-04-05T10:25:28.250Z,96157.00
2019-04-05T10:27:59.840Z,96158.00
2019-04-05T10:30:31.132Z,96158.00
2019-04-05T10:33:02.761Z,96161.00
2019-04-05T10:35:34.976Z,96159.00
2019-04-05T10:38:06.954Z,96159.00
2019-04-05T10:40:38.437Z,96173.00
2019-04-05T10:43:11.480Z,96168.00
2019-04-05T10:45:42.636Z,96168.00
2019-04-05T10:48:14.176Z,96177.00
2019-04-05T10:50:45.822Z,96180.00
2019-04-05T10:53:17.463Z,96192.00
2019-04-05T10:55:48.751Z,96181.00
2019-04-05T10:58:20.724Z,96189.00
2019-04-05T11:00:52.441Z,96193.00
2019-04-05T11:03:24.404Z,96195.00
2019-04-05T11:05:56.066Z,96202.00
2019-04-05T11:08:27.471Z,96194.00
2019-04-05T11:10:58.780Z,96195.00
2019-04-05T11:13:30.428Z,96194.00
2019-04-05T11:16:04.135Z,96176.00
2019-04-05T11:18:35.848Z,96187.00
2019-04-05T11:21:07.414Z,96189.00
2019-04-05T11:23:38.873Z,96191.00
2019-04-05T11:26:10.230Z,96190.00
2019-04-05T11:28:41.543Z,96184.00
2019-04-05T11:31:12.924Z,96192.00
2019-04-05T11:33:45.010Z,96189.00
2019-04-05T11:36:16.312Z,96191.00
2019-04-05T11:38:50.789Z,96194.00
2019-04-05T11:41:22.708Z,96202.00
2019-04-05T11:43:55.596Z,96182.00
2019-04-05T11:46:28.413Z,96182.00
2019-04-05T11:49:03.746Z,96185.00
2019-04-05T11:51:35.533Z,96184.00
2019-04-05T11:54:07.852Z,96187.00
2019-04-05T11:56:38.935Z,96181.00
2019-04-05T11:59:15.574Z,96181.00
2019-04-05T12:02:06.197Z,96175.00
2019-04-05T12:04:37.482Z,96179.00
2019-04-05T12:07:08.715Z,96180.00
2019-04-05T12:09:39.943Z,96175.00
2019-04-05T12:12:11.091Z,96175.00
2019-04-05T12:14:42.364Z,96183.00
2019-04-05T12:17:13.581Z,96189.00
2019-04-05T12:19:45.126Z,96185.00
2019-04-05T12:22:16.379Z,96177.00
2019-04-05T12:24:47.837Z,96182.00
2019-04-05T12:27:20.854Z,96173.00
2019-04-05T12:29:52.206Z,96173.00
2019-04-05T12:35:31.142Z,96168.00
2019-04-05T12:38:02.811Z,96177.00
2019-04-05T12:40:34.748Z,96172.00
2019-04-05T12:43:07.014Z,96163.00
2019-04-05T12:45:38.600Z,96176.00
2019-04-05T12:48:09.903Z,96171.00
2019-04-05T12:50:44.492Z,96169.00
2019-04-05T12:53:15.336Z,96162.00
2019-04-05T12:55:46.891Z,96163.00
2019-04-05T12:58:18.812Z,96162.00
2019-04-05T13:00:50.129Z,96164.00
2019-04-05T13:03:21.635Z,96157.00
2019-04-05T13:05:52.931Z,96153.00
2019-04-05T13:08:24.605Z,96157.00
2019-04-05T13:10:56.987Z,96157.00
2019-04-05T13:13:28.477Z,96154.00
2019-04-05T13:15:59.783Z,96158.00
2019-04-05T13:18:31.780Z,96163.00
2019-04-05T13:21:14.545Z,96151.00
2019-04-05T13:23:36.665Z,96159.00
2019-04-05T13:26:11.485Z,96157.00
2019-04-05T13:28:40.874Z,96148.00
2019-04-05T13:31:12.483Z,96159.00
2019-04-05T13:33:43.783Z,96153.00
2019-04-05T13:36:15.085Z,96154.00
2019-04-05T13:38:54.723Z,96162.00
2019-04-05T13:41:19.298Z,96156.00
2019-04-05T13:43:50.590Z,96155.00
2019-04-05T13:46:25.707Z,96156.00
2019-04-05T13:48:55.106Z,96108.00
2019-04-05T13:51:28.561Z,96141.00
2019-04-05T13:53:59.574Z,96127.00
2019-04-05T13:56:31.199Z,96140.00
2019-04-05T13:59:02.542Z,96128.00
2019-04-05T14:01:34.195Z,96131.00
2019-04-05T14:04:05.730Z,96130.00
2019-04-05T14:06:37.086Z,96139.00
2019-04-05T14:09:10.398Z,96139.00
2019-04-05T14:11:42.274Z,96131.00
2019-04-05T14:14:14.030Z,96126.00
2019-04-05T14:16:45.716Z,96134.00
2019-04-05T14:19:19.216Z,96126.00
2019-04-05T14:21:52.783Z,96135.00
2019-04-05T14:24:23.430Z,96130.00
2019-04-05T14:26:56.286Z,96125.00
2019-04-05T14:29:27.923Z,96126.00
2019-04-05T14:32:11.710Z,96137.00
2019-04-05T14:34:32.675Z,96128.00
2019-04-05T14:37:03.991Z,96141.00
2019-04-05T14:39:35.293Z,96127.00
2019-04-05T14:42:10.128Z,96129.00
2019-04-05T14:44:39.792Z,96132.00
2019-04-05T14:47:11.411Z,96132.00
2019-04-05T14:49:42.900Z,96146.00
2019-04-05T14:52:14.175Z,96128.00
2019-04-05T14:54:45.486Z,96140.00
2019-04-05T14:57:16.725Z,96132.00
2019-04-05T14:59:48.500Z,96121.00
2019-04-05T15:02:19.781Z,96121.00
2019-04-05T15:04:51.355Z,96127.00
2019-04-05T15:07:22.608Z,96126.00
2019-04-05T15:09:55.621Z,96126.00
2019-04-05T15:12:29.022Z,96131.00
2019-04-05T15:14:59.542Z,96123.00
2019-04-05T15:17:30.804Z,96117.00
2019-04-05T15:20:04.642Z,96119.00
2019-04-05T15:22:34.997Z,96117.00
2019-04-05T15:25:07.733Z,96119.00
2019-04-05T15:27:39.366Z,96125.00
2019-04-05T15:30:11.467Z,96134.00
2019-04-05T15:32:42.872Z,96121.00
2019-04-05T15:35:14.483Z,96132.00
2019-04-05T15:37:45.720Z,96127.00
2019-04-05T15:40:18.474Z,96116.00
2019-04-05T15:42:50.660Z,96127.00
2019-04-05T15:45:21.949Z,96122.00
2019-04-05T15:47:53.534Z,96120.00
2019-04-05T15:50:24.595Z,96126.00
2019-04-05T15:52:55.778Z,96124.00
2019-04-05T15:55:27.000Z,96120.00
2019-04-05T15:57:58.687Z,96126.00
2019-04-05T16:00:44.736Z,96123.00
2019-04-05T16:03:16.675Z,96116.00
2019-04-05T16:05:47.992Z,96119.00
2019-04-05T16:08:20.256Z,96124.00
2019-04-05T16:10:51.547Z,96123.00
2019-04-05T16:13:22.738Z,96132.00
2019-04-05T16:15:54.229Z,96127.00
2019-04-05T16:18:26.286Z,96129.00
2019-04-05T16:20:57.940Z,96133.00
2019-04-05T16:23:29.588Z,96140.00
2019-04-05T16:26:02.629Z,96137.00
2019-04-05T16:28:33.803Z,96136.00
2019-04-05T16:31:05.136Z,96133.00
2019-04-05T16:33:36.315Z,96144.00
2019-04-05T16:36:07.969Z,96134.00
2019-04-05T16:38:39.338Z,96136.00
2019-04-05T16:41:10.581Z,96143.00
2019-04-05T16:43:41.705Z,96137.00
2019-04-05T16:46:13.359Z,96130.00
2019-04-05T16:48:44.607Z,96133.00
2019-04-05T16:51:15.867Z,96135.00
2019-04-05T16:54:01.169Z,96137.00
2019-04-05T16:56:32.760Z,96133.00
2019-04-05T16:59:04.108Z,96130.00
2019-04-05T17:01:35.781Z,96132.00
2019-04-05T17:04:07.117Z,96129.00
2019-04-05T17:06:38.783Z,96131.00
2019-04-05T17:09:10.455Z,96124.00
2019-04-05T17:11:41.678Z,96125.00
2019-04-05T17:14:14.163Z,96122.00
2019-04-05T17:16:45.847Z,96113.00
2019-04-05T17:19:17.062Z,96115.00
2019-04-05T17:21:48.373Z,96127.00
2019-04-05T17:24:19.778Z,96129.00
2019-04-05T17:26:51.668Z,96125.00
2019-04-05T17:29:23.315Z,96137.00
2019-04-05T17:31:55.246Z,96133.00
2019-04-05T17:34:26.505Z,96136.00
2019-04-05T17:36:58.133Z,96131.00
2019-04-05T17:39:29.485Z,96136.00
2019-04-05T17:42:00.812Z,96133.00
2019-04-05T17:44:32.164Z,96133.00
2019-04-05T17:47:04.141Z,96144.00
2019-04-05T17:49:35.269Z,96142.00
2019-04-05T17:52:07.138Z,96148.00
2019-04-05T17:54:38.614Z,96143.00
2019-04-05T17:57:09.938Z,96148.00
2019-04-05T17:59:42.220Z,96141.00
2019-04-05T18:02:13.544Z,96151.00
2019-04-05T18:04:45.522Z,96152.00
2019-04-05T18:07:17.487Z,96158.00
2019-04-05T18:09:48.755Z,96156.00
2019-04-05T18:12:20.384Z,96158.00
2019-04-05T18:14:52.675Z,96157.00
2019-04-05T18:19:49.755Z,96155.00
2019-04-05T18:22:21.126Z,96162.00
2019-04-05T18:24:52.747Z,96157.00
2019-04-05T18:27:24.219Z,96154.00
2019-04-05T18:29:55.645Z,96166.00
2019-04-05T18:32:31.393Z,96158.00
2019-04-05T18:35:03.231Z,96166.00
2019-04-05T18:37:35.358Z,96157.00
2019-04-05T18:40:07.498Z,96165.00
2019-04-05T18:42:38.665Z,96162.00
2019-04-05T18:45:10.786Z,96166.00
2019-04-05T18:47:43.660Z,96159.00
2019-04-05T18:50:15.057Z,96168.00
2019-04-05T18:52:46.298Z,96170.00
2019-04-05T18:55:17.658Z,96166.00
2019-04-05T18:57:49.118Z,96165.00
2019-04-05T19:00:20.799Z,96168.00
2019-04-05T19:02:52.181Z,96169.00
2019-04-05T19:05:23.503Z,96181.00
2019-04-05T19:07:54.890Z,96181.00
2019-04-05T19:10:36.500Z,96178.00
2019-04-05T19:12:59.744Z,96187.00
2019-04-05T19:15:31.166Z,96187.00
2019-04-05T19:18:03.114Z,96181.00
2019-04-05T19:20:36.908Z,96187.00
2019-04-05T19:23:08.428Z,96194.00
2019-04-05T19:25:40.131Z,96179.00
2019-04-05T19:28:11.782Z,96177.00
2019-04-05T19:48:35.529Z,96179.00
2019-04-05T19:51:07.299Z,96185.00
2019-04-05T19:53:38.572Z,96181.00
2019-04-05T19:56:09.815Z,96184.00
2019-04-05T19:58:41.455Z,96179.00
2019-04-05T20:01:12.799Z,96181.00
2019-04-05T20:03:43.876Z,96178.00
2019-04-05T20:06:15.157Z,96174.00
2019-04-05T20:08:46.445Z,96176.00
2019-04-05T20:11:18.063Z,96180.00
2019-04-05T20:13:50.355Z,96180.00
2019-04-05T20:16:21.610Z,96169.00
2019-04-05T20:18:52.887Z,96178.00
2019-04-05T20:21:24.405Z,96178.00
2019-04-05T20:23:55.960Z,96184.00
2019-04-05T20:26:27.444Z,96183.00
2019-04-05T20:29:00.112Z,96185.00
2019-04-05T20:31:31.336Z,96179.00
2019-04-05T20:34:02.924Z,96191.00
2019-04-05T20:36:34.748Z,96196.00
2019-04-05T20:39:07.802Z,96195.00
2019-04-05T20:41:39.340Z,96198.00
2019-04-05T20:44:10.578Z,96200.00
2019-04-05T20:46:41.769Z,96189.00
2019-04-05T20:49:12.951Z,96196.00
2019-04-05T20:51:44.471Z,96199.00
2019-04-05T20:54:24.259Z,96194.00
2019-04-05T20:56:49.110Z,96197.00
2019-04-05T20:59:20.969Z,96190.00
2019-04-05T21:01:52.259Z,96200.00
2019-04-05T21:04:24.178Z,96198.00
2019-04-05T21:06:56.164Z,96200.00
2019-04-05T21:09:27.621Z,96201.00
2019-04-05T21:11:58.913Z,96187.00
2019-04-05T21:14:30.006Z,96201.00
2019-04-05T21:17:01.683Z,96198.00
2019-04-05T21:19:33.915Z,96198.00
2019-04-05T21:22:05.105Z,96208.00
2019-04-05T21:24:36.599Z,96208.00
2019-04-05T21:27:08.026Z,96207.00
2019-04-05T21:29:39.412Z,96198.00
2019-04-05T21:32:11.787Z,96202.00
2019-04-05T21:34:43.461Z,96211.00
2019-04-05T21:37:14.576Z,96195.00
2019-04-05T21:39:45.784Z,96214.00
2019-04-05T21:42:16.975Z,96200.00
2019-04-05T21:44:48.215Z,96202.00
2019-04-05T21:47:19.469Z,96207.00
2019-04-05T21:49:50.635Z,96204.00
2019-04-05T21:52:22.024Z,96192.00
2019-04-05T21:54:53.688Z,96213.00
2019-04-05T21:57:25.005Z,96197.00
2019-04-05T21:59:56.586Z,96199.00
2019-04-05T22:02:27.765Z,96206.00
2019-04-05T22:05:01.230Z,96210.00
2019-04-05T22:07:33.893Z,96207.00
2019-04-05T22:10:05.902Z,96201.00
2019-04-05T22:12:37.635Z,96202.00
2019-04-05T22:15:08.967Z,96207.00
2019-04-05T22:17:40.632Z,96213.00
2019-04-05T22:20:12.080Z,96212.00
2019-04-05T22:22:43.533Z,96204.00
2019-04-05T22:25:14.725Z,96204.00
2019-04-05T22:27:45.826Z,96211.00
2019-04-05T22:30:17.134Z,96212.00
2019-04-05T22:32:48.429Z,96216.00
2019-04-05T22:35:20.063Z,96219.00
2019-04-05T22:37:51.433Z,96212.00
2019-04-05T22:40:22.784Z,96208.00
2019-04-05T22:42:54.045Z,96209.00
2019-04-05T22:45:25.245Z,96207.00
2019-04-05T22:47:57.733Z,96208.00
2019-04-05T22:50:29.037Z,96211.00
2019-04-05T22:53:00.257Z,96218.00
2019-04-05T22:55:31.474Z,96215.00
2019-04-05T22:58:03.204Z,96221.00
2019-04-05T23:00:34.538Z,96231.00
2019-04-05T23:03:06.016Z,96220.00
2019-04-05T23:05:37.647Z,96227.00
2019-04-05T23:08:09.188Z,96233.00
2019-04-05T23:10:40.976Z,96235.00
2019-04-05T23:13:12.638Z,96234.00
2019-04-05T23:15:44.318Z,96245.00
2019-04-05T23:18:15.589Z,96235.00
2019-04-05T23:20:47.453Z,96238.00
2019-04-05T23:23:18.683Z,96236.00
2019-04-05T23:25:49.990Z,96245.00
2019-04-05T23:28:21.546Z,96245.00
2019-04-05T23:30:53.760Z,96240.00
2019-04-05T23:33:25.223Z,96236.00
2019-04-05T23:35:56.804Z,96235.00
2019-04-05T23:38:28.124Z,96236.00
2019-04-05T23:40:59.713Z,96248.00
2019-04-05T23:43:30.925Z,96261.00
2019-04-05T23:46:02.261Z,96248.00
2019-04-05T23:48:33.455Z,96240.00
2019-04-05T23:51:08.114Z,96245.00
2019-04-05T23:53:40.072Z,96236.00
2019-04-05T23:56:11.446Z,96239.00
2019-04-05T23:58:42.934Z,96235.00
